sensor_id;sensor_type;location;lat;lon;timestamp;P1;durP1;ratioP1;P2;durP2;ratioP2
41946;SDS011;27638;42.184;24.848;2023-03-12T00:00:47;1.15;;;1.05;;
41946;SDS011;27638;42.184;24.848;2023-03-12T00:03:13;1.38;;;1.15;;
41946;SDS011;27638;42.184;24.848;2023-03-12T00:05:39;3.08;;;1.23;;
41946;SDS011;27638;42.184;24.848;2023-03-12T00:08:06;3.03;;;1.02;;
41946;SDS011;27638;42.184;24.848;2023-03-12T00:10:32;2.03;;;1.00;;
41946;SDS011;27638;42.184;24.848;2023-03-12T00:12:57;1.90;;;1.00;;
41946;SDS011;27638;42.184;24.848;2023-03-12T00:15:23;2.17;;;1.35;;
41946;SDS011;27638;42.184;24.848;2023-03-12T00:17:49;1.23;;;1.00;;
41946;SDS011;27638;42.184;24.848;2023-03-12T00:20:15;2.72;;;0.98;;
41946;SDS011;27638;42.184;24.848;2023-03-12T00:22:42;1.58;;;1.13;;
41946;SDS011;27638;42.184;24.848;2023-03-12T00:25:10;2.42;;;1.10;;
41946;SDS011;27638;42.184;24.848;2023-03-12T00:27:37;4.05;;;1.20;;
41946;SDS011;27638;42.184;24.848;2023-03-12T00:30:03;1.00;;;0.90;;
41946;SDS011;27638;42.184;24.848;2023-03-12T00:32:33;1.92;;;1.10;;
41946;SDS011;27638;42.184;24.848;2023-03-12T00:34:59;1.85;;;1.10;;
41946;SDS011;27638;42.184;24.848;2023-03-12T00:37:25;5.35;;;0.95;;
41946;SDS011;27638;42.184;24.848;2023-03-12T00:39:50;1.13;;;1.02;;
41946;SDS011;27638;42.184;24.848;2023-03-12T00:42:16;1.85;;;1.05;;
41946;SDS011;27638;42.184;24.848;2023-03-12T00:44:42;1.67;;;1.08;;
41946;SDS011;27638;42.184;24.848;2023-03-12T00:47:08;3.17;;;1.73;;
41946;SDS011;27638;42.184;24.848;2023-03-12T00:49:35;2.35;;;1.00;;
41946;SDS011;27638;42.184;24.848;2023-03-12T00:52:01;2.92;;;1.55;;
41946;SDS011;27638;42.184;24.848;2023-03-12T00:54:27;1.60;;;1.17;;
41946;SDS011;27638;42.184;24.848;2023-03-12T00:56:52;1.33;;;1.23;;
41946;SDS011;27638;42.184;24.848;2023-03-12T00:59:17;3.85;;;1.45;;
41946;SDS011;27638;42.184;24.848;2023-03-12T01:01:43;1.60;;;1.40;;
41946;SDS011;27638;42.184;24.848;2023-03-12T01:04:08;2.20;;;1.30;;
41946;SDS011;27638;42.184;24.848;2023-03-12T01:06:34;3.25;;;1.58;;
41946;SDS011;27638;42.184;24.848;2023-03-12T01:09:03;3.22;;;1.17;;
41946;SDS011;27638;42.184;24.848;2023-03-12T01:11:30;2.72;;;1.58;;
41946;SDS011;27638;42.184;24.848;2023-03-12T01:13:57;2.15;;;1.40;;
41946;SDS011;27638;42.184;24.848;2023-03-12T01:16:24;2.70;;;1.08;;
41946;SDS011;27638;42.184;24.848;2023-03-12T01:18:52;3.65;;;1.23;;
41946;SDS011;27638;42.184;24.848;2023-03-12T01:21:18;3.60;;;1.27;;
41946;SDS011;27638;42.184;24.848;2023-03-12T01:23:44;2.45;;;1.20;;
41946;SDS011;27638;42.184;24.848;2023-03-12T01:26:09;1.85;;;1.50;;
41946;SDS011;27638;42.184;24.848;2023-03-12T01:28:35;4.93;;;1.80;;
41946;SDS011;27638;42.184;24.848;2023-03-12T01:31:07;2.92;;;1.48;;
41946;SDS011;27638;42.184;24.848;2023-03-12T01:33:34;2.67;;;1.67;;
41946;SDS011;27638;42.184;24.848;2023-03-12T01:35:59;3.05;;;1.38;;
41946;SDS011;27638;42.184;24.848;2023-03-12T01:38:25;2.83;;;1.50;;
41946;SDS011;27638;42.184;24.848;2023-03-12T01:40:50;3.28;;;2.05;;
41946;SDS011;27638;42.184;24.848;2023-03-12T01:46:05;3.30;;;2.40;;
41946;SDS011;27638;42.184;24.848;2023-03-12T01:48:50;2.70;;;1.30;;
41946;SDS011;27638;42.184;24.848;2023-03-12T01:53:46;3.63;;;1.92;;
41946;SDS011;27638;42.184;24.848;2023-03-12T01:56:15;3.58;;;1.67;;
41946;SDS011;27638;42.184;24.848;2023-03-12T01:58:43;3.67;;;1.50;;
41946;SDS011;27638;42.184;24.848;2023-03-12T02:01:17;3.28;;;2.05;;
41946;SDS011;27638;42.184;24.848;2023-03-12T02:03:45;3.53;;;1.90;;
41946;SDS011;27638;42.184;24.848;2023-03-12T02:06:13;2.92;;;1.70;;
41946;SDS011;27638;42.184;24.848;2023-03-12T02:08:43;2.38;;;2.10;;
41946;SDS011;27638;42.184;24.848;2023-03-12T02:11:11;4.43;;;2.22;;
41946;SDS011;27638;42.184;24.848;2023-03-12T02:13:37;4.15;;;1.90;;
41946;SDS011;27638;42.184;24.848;2023-03-12T02:16:03;4.70;;;1.80;;
41946;SDS011;27638;42.184;24.848;2023-03-12T02:18:29;2.80;;;1.80;;
41946;SDS011;27638;42.184;24.848;2023-03-12T02:21:00;5.47;;;3.20;;
41946;SDS011;27638;42.184;24.848;2023-03-12T02:23:43;3.67;;;2.50;;
41946;SDS011;27638;42.184;24.848;2023-03-12T02:26:15;2.47;;;2.25;;
41946;SDS011;27638;42.184;24.848;2023-03-12T02:28:43;3.55;;;2.20;;
41946;SDS011;27638;42.184;24.848;2023-03-12T02:31:14;5.22;;;2.47;;
41946;SDS011;27638;42.184;24.848;2023-03-12T02:33:44;5.00;;;2.38;;
41946;SDS011;27638;42.184;24.848;2023-03-12T02:36:09;2.67;;;2.22;;
41946;SDS011;27638;42.184;24.848;2023-03-12T02:46:23;3.17;;;2.80;;
41946;SDS011;27638;42.184;24.848;2023-03-12T02:48:49;3.10;;;2.65;;
41946;SDS011;27638;42.184;24.848;2023-03-12T02:51:15;5.47;;;3.22;;
41946;SDS011;27638;42.184;24.848;2023-03-12T02:53:40;5.18;;;3.38;;
41946;SDS011;27638;42.184;24.848;2023-03-12T02:56:06;5.10;;;3.28;;
41946;SDS011;27638;42.184;24.848;2023-03-12T02:58:32;9.18;;;3.35;;
41946;SDS011;27638;42.184;24.848;2023-03-12T03:00:57;5.57;;;3.08;;
41946;SDS011;27638;42.184;24.848;2023-03-12T03:03:23;4.35;;;2.72;;
41946;SDS011;27638;42.184;24.848;2023-03-12T03:05:49;3.30;;;3.00;;
41946;SDS011;27638;42.184;24.848;2023-03-12T03:08:15;4.63;;;2.85;;
41946;SDS011;27638;42.184;24.848;2023-03-12T03:10:41;6.72;;;3.40;;
41946;SDS011;27638;42.184;24.848;2023-03-12T03:13:07;3.47;;;3.03;;
41946;SDS011;27638;42.184;24.848;2023-03-12T03:15:33;4.95;;;3.28;;
41946;SDS011;27638;42.184;24.848;2023-03-12T03:17:58;4.00;;;3.45;;
41946;SDS011;27638;42.184;24.848;2023-03-12T03:20:27;5.10;;;2.97;;
41946;SDS011;27638;42.184;24.848;2023-03-12T03:22:53;4.57;;;2.90;;
41946;SDS011;27638;42.184;24.848;2023-03-12T03:25:19;7.95;;;3.17;;
41946;SDS011;27638;42.184;24.848;2023-03-12T03:27:47;5.47;;;3.10;;
41946;SDS011;27638;42.184;24.848;2023-03-12T03:30:13;4.60;;;3.38;;
41946;SDS011;27638;42.184;24.848;2023-03-12T03:32:39;7.95;;;3.70;;
41946;SDS011;27638;42.184;24.848;2023-03-12T03:35:04;4.57;;;3.10;;
41946;SDS011;27638;42.184;24.848;2023-03-12T03:37:30;6.03;;;3.00;;
41946;SDS011;27638;42.184;24.848;2023-03-12T03:39:56;4.45;;;3.20;;
41946;SDS011;27638;42.184;24.848;2023-03-12T03:42:21;6.38;;;3.25;;
41946;SDS011;27638;42.184;24.848;2023-03-12T03:44:47;5.00;;;2.70;;
41946;SDS011;27638;42.184;24.848;2023-03-12T03:47:12;3.20;;;2.90;;
41946;SDS011;27638;42.184;24.848;2023-03-12T03:49:38;5.95;;;3.72;;
41946;SDS011;27638;42.184;24.848;2023-03-12T03:52:03;3.90;;;3.05;;
41946;SDS011;27638;42.184;24.848;2023-03-12T03:54:30;6.80;;;3.58;;
41946;SDS011;27638;42.184;24.848;2023-03-12T03:56:55;7.85;;;3.47;;
41946;SDS011;27638;42.184;24.848;2023-03-12T03:59:21;4.63;;;3.83;;
41946;SDS011;27638;42.184;24.848;2023-03-12T04:01:46;4.32;;;3.25;;
41946;SDS011;27638;42.184;24.848;2023-03-12T04:04:12;4.90;;;3.78;;
41946;SDS011;27638;42.184;24.848;2023-03-12T04:06:37;5.65;;;3.15;;
41946;SDS011;27638;42.184;24.848;2023-03-12T04:09:02;3.75;;;3.15;;
41946;SDS011;27638;42.184;24.848;2023-03-12T04:11:28;3.63;;;2.67;;
41946;SDS011;27638;42.184;24.848;2023-03-12T04:13:53;4.22;;;2.50;;
41946;SDS011;27638;42.184;24.848;2023-03-12T04:16:19;4.38;;;3.17;;
41946;SDS011;27638;42.184;24.848;2023-03-12T04:18:44;3.53;;;2.80;;
41946;SDS011;27638;42.184;24.848;2023-03-12T04:21:10;3.55;;;2.85;;
41946;SDS011;27638;42.184;24.848;2023-03-12T04:23:37;3.47;;;2.90;;
41946;SDS011;27638;42.184;24.848;2023-03-12T04:26:03;5.00;;;2.80;;
41946;SDS011;27638;42.184;24.848;2023-03-12T04:28:30;4.18;;;3.10;;
41946;SDS011;27638;42.184;24.848;2023-03-12T04:31:00;3.08;;;2.72;;
41946;SDS011;27638;42.184;24.848;2023-03-12T04:33:28;7.18;;;3.92;;
41946;SDS011;27638;42.184;24.848;2023-03-12T04:35:55;5.07;;;3.80;;
41946;SDS011;27638;42.184;24.848;2023-03-12T04:38:21;4.47;;;3.47;;
41946;SDS011;27638;42.184;24.848;2023-03-12T04:40:58;4.85;;;2.92;;
41946;SDS011;27638;42.184;24.848;2023-03-12T04:43:24;3.20;;;2.65;;
41946;SDS011;27638;42.184;24.848;2023-03-12T04:45:49;2.80;;;2.42;;
41946;SDS011;27638;42.184;24.848;2023-03-12T04:48:15;2.90;;;2.55;;
41946;SDS011;27638;42.184;24.848;2023-03-12T04:50:40;5.57;;;3.20;;
41946;SDS011;27638;42.184;24.848;2023-03-12T04:53:06;2.67;;;2.47;;
41946;SDS011;27638;42.184;24.848;2023-03-12T04:55:31;3.17;;;2.38;;
41946;SDS011;27638;42.184;24.848;2023-03-12T04:57:57;4.63;;;3.17;;
41946;SDS011;27638;42.184;24.848;2023-03-12T05:00:22;3.35;;;2.40;;
41946;SDS011;27638;42.184;24.848;2023-03-12T05:02:48;2.42;;;2.08;;
41946;SDS011;27638;42.184;24.848;2023-03-12T05:05:13;4.72;;;2.60;;
41946;SDS011;27638;42.184;24.848;2023-03-12T05:07:39;3.45;;;2.50;;
41946;SDS011;27638;42.184;24.848;2023-03-12T05:10:04;4.75;;;2.65;;
41946;SDS011;27638;42.184;24.848;2023-03-12T05:12:31;3.58;;;2.10;;
41946;SDS011;27638;42.184;24.848;2023-03-12T05:14:56;4.05;;;2.28;;
41946;SDS011;27638;42.184;24.848;2023-03-12T05:17:23;5.47;;;3.03;;
41946;SDS011;27638;42.184;24.848;2023-03-12T05:19:48;2.30;;;2.10;;
41946;SDS011;27638;42.184;24.848;2023-03-12T05:22:14;4.35;;;2.40;;
41946;SDS011;27638;42.184;24.848;2023-03-12T05:24:39;5.93;;;3.00;;
41946;SDS011;27638;42.184;24.848;2023-03-12T05:27:05;4.53;;;2.92;;
41946;SDS011;27638;42.184;24.848;2023-03-12T05:29:32;2.38;;;2.03;;
41946;SDS011;27638;42.184;24.848;2023-03-12T05:31:59;2.90;;;2.30;;
41946;SDS011;27638;42.184;24.848;2023-03-12T05:34:26;3.50;;;2.47;;
41946;SDS011;27638;42.184;24.848;2023-03-12T05:36:52;3.03;;;2.22;;
41946;SDS011;27638;42.184;24.848;2023-03-12T05:39:18;2.83;;;2.28;;
41946;SDS011;27638;42.184;24.848;2023-03-12T05:41:43;3.55;;;2.40;;
41946;SDS011;27638;42.184;24.848;2023-03-12T05:44:10;2.60;;;2.00;;
41946;SDS011;27638;42.184;24.848;2023-03-12T05:46:37;4.70;;;2.47;;
41946;SDS011;27638;42.184;24.848;2023-03-12T05:49:03;4.00;;;2.20;;
41946;SDS011;27638;42.184;24.848;2023-03-12T05:51:28;3.40;;;2.22;;
41946;SDS011;27638;42.184;24.848;2023-03-12T05:53:53;4.03;;;1.90;;
41946;SDS011;27638;42.184;24.848;2023-03-12T05:56:19;4.45;;;2.28;;
41946;SDS011;27638;42.184;24.848;2023-03-12T05:58:46;2.38;;;1.98;;
41946;SDS011;27638;42.184;24.848;2023-03-12T06:01:15;2.97;;;1.92;;
41946;SDS011;27638;42.184;24.848;2023-03-12T06:03:43;2.30;;;1.90;;
41946;SDS011;27638;42.184;24.848;2023-03-12T06:06:09;2.35;;;1.73;;
41946;SDS011;27638;42.184;24.848;2023-03-12T06:08:35;1.83;;;1.70;;
41946;SDS011;27638;42.184;24.848;2023-03-12T06:11:00;2.00;;;1.83;;
41946;SDS011;27638;42.184;24.848;2023-03-12T06:13:26;2.42;;;1.77;;
41946;SDS011;27638;42.184;24.848;2023-03-12T06:15:52;2.42;;;2.05;;
41946;SDS011;27638;42.184;24.848;2023-03-12T06:18:18;4.47;;;2.50;;
41946;SDS011;27638;42.184;24.848;2023-03-12T06:20:44;3.38;;;2.28;;
41946;SDS011;27638;42.184;24.848;2023-03-12T06:23:09;2.92;;;1.60;;
41946;SDS011;27638;42.184;24.848;2023-03-12T06:25:35;1.45;;;1.35;;
41946;SDS011;27638;42.184;24.848;2023-03-12T06:28:00;3.22;;;1.77;;
41946;SDS011;27638;42.184;24.848;2023-03-12T06:30:26;4.65;;;1.83;;
41946;SDS011;27638;42.184;24.848;2023-03-12T06:32:52;3.03;;;1.38;;
41946;SDS011;27638;42.184;24.848;2023-03-12T06:35:18;2.70;;;1.70;;
41946;SDS011;27638;42.184;24.848;2023-03-12T06:37:43;2.05;;;1.83;;
41946;SDS011;27638;42.184;24.848;2023-03-12T06:40:09;2.13;;;1.50;;
41946;SDS011;27638;42.184;24.848;2023-03-12T06:42:37;3.38;;;1.80;;
41946;SDS011;27638;42.184;24.848;2023-03-12T06:45:03;2.38;;;2.05;;
41946;SDS011;27638;42.184;24.848;2023-03-12T06:47:29;2.47;;;1.73;;
41946;SDS011;27638;42.184;24.848;2023-03-12T06:49:55;3.42;;;1.70;;
41946;SDS011;27638;42.184;24.848;2023-03-12T06:52:20;2.25;;;1.65;;
41946;SDS011;27638;42.184;24.848;2023-03-12T06:54:46;2.47;;;1.83;;
41946;SDS011;27638;42.184;24.848;2023-03-12T06:57:11;1.65;;;1.40;;
41946;SDS011;27638;42.184;24.848;2023-03-12T06:59:37;2.08;;;1.30;;
41946;SDS011;27638;42.184;24.848;2023-03-12T07:02:02;2.40;;;1.38;;
41946;SDS011;27638;42.184;24.848;2023-03-12T07:04:28;2.05;;;1.20;;
41946;SDS011;27638;42.184;24.848;2023-03-12T07:06:53;2.72;;;1.55;;
41946;SDS011;27638;42.184;24.848;2023-03-12T07:09:19;2.58;;;1.30;;
41946;SDS011;27638;42.184;24.848;2023-03-12T07:11:45;4.15;;;1.63;;
41946;SDS011;27638;42.184;24.848;2023-03-12T07:14:10;2.03;;;1.20;;
41946;SDS011;27638;42.184;24.848;2023-03-12T07:16:36;3.40;;;1.35;;
41946;SDS011;27638;42.184;24.848;2023-03-12T07:19:02;1.45;;;1.35;;
41946;SDS011;27638;42.184;24.848;2023-03-12T07:21:28;1.85;;;1.25;;
41946;SDS011;27638;42.184;24.848;2023-03-12T07:23:54;1.38;;;1.25;;
41946;SDS011;27638;42.184;24.848;2023-03-12T07:26:19;1.35;;;1.05;;
41946;SDS011;27638;42.184;24.848;2023-03-12T07:28:45;1.50;;;1.20;;
41946;SDS011;27638;42.184;24.848;2023-03-12T07:31:11;1.40;;;1.30;;
41946;SDS011;27638;42.184;24.848;2023-03-12T07:33:36;1.75;;;1.17;;
41946;SDS011;27638;42.184;24.848;2023-03-12T07:36:02;2.15;;;1.20;;
41946;SDS011;27638;42.184;24.848;2023-03-12T07:38:28;1.33;;;1.23;;
41946;SDS011;27638;42.184;24.848;2023-03-12T07:40:54;2.30;;;1.45;;
41946;SDS011;27638;42.184;24.848;2023-03-12T07:43:21;1.55;;;1.40;;
41946;SDS011;27638;42.184;24.848;2023-03-12T07:45:48;1.63;;;1.10;;
41946;SDS011;27638;42.184;24.848;2023-03-12T07:48:14;1.15;;;0.98;;
41946;SDS011;27638;42.184;24.848;2023-03-12T07:50:40;2.60;;;1.50;;
41946;SDS011;27638;42.184;24.848;2023-03-12T07:53:05;2.25;;;1.30;;
41946;SDS011;27638;42.184;24.848;2023-03-12T07:55:31;1.92;;;1.40;;
41946;SDS011;27638;42.184;24.848;2023-03-12T07:57:58;1.95;;;1.08;;
41946;SDS011;27638;42.184;24.848;2023-03-12T08:00:24;0.95;;;0.95;;
41946;SDS011;27638;42.184;24.848;2023-03-12T08:02:51;1.95;;;1.27;;
41946;SDS011;27638;42.184;24.848;2023-03-12T08:05:17;1.95;;;1.40;;
41946;SDS011;27638;42.184;24.848;2023-03-12T08:07:43;4.07;;;1.58;;
41946;SDS011;27638;42.184;24.848;2023-03-12T08:10:09;1.52;;;1.25;;
41946;SDS011;27638;42.184;24.848;2023-03-12T08:12:35;3.83;;;1.33;;
41946;SDS011;27638;42.184;24.848;2023-03-12T08:15:04;1.83;;;1.20;;
41946;SDS011;27638;42.184;24.848;2023-03-12T08:17:32;2.53;;;1.10;;
41946;SDS011;27638;42.184;24.848;2023-03-12T08:19:57;2.58;;;1.20;;
41946;SDS011;27638;42.184;24.848;2023-03-12T08:22:23;2.25;;;1.30;;
41946;SDS011;27638;42.184;24.848;2023-03-12T08:24:48;4.00;;;0.90;;
41946;SDS011;27638;42.184;24.848;2023-03-12T08:27:14;1.65;;;1.05;;
41946;SDS011;27638;42.184;24.848;2023-03-12T08:29:39;3.17;;;1.63;;
41946;SDS011;27638;42.184;24.848;2023-03-12T08:32:05;3.58;;;1.25;;
41946;SDS011;27638;42.184;24.848;2023-03-12T08:34:32;2.17;;;1.13;;
41946;SDS011;27638;42.184;24.848;2023-03-12T08:36:59;3.05;;;1.10;;
41946;SDS011;27638;42.184;24.848;2023-03-12T08:39:25;1.67;;;1.02;;
41946;SDS011;27638;42.184;24.848;2023-03-12T08:41:50;3.20;;;1.20;;
41946;SDS011;27638;42.184;24.848;2023-03-12T08:44:19;2.13;;;1.20;;
41946;SDS011;27638;42.184;24.848;2023-03-12T08:46:45;1.90;;;1.10;;
41946;SDS011;27638;42.184;24.848;2023-03-12T08:49:11;3.60;;;1.40;;
41946;SDS011;27638;42.184;24.848;2023-03-12T08:51:37;2.03;;;1.65;;
41946;SDS011;27638;42.184;24.848;2023-03-12T08:54:02;1.65;;;1.33;;
41946;SDS011;27638;42.184;24.848;2023-03-12T08:56:29;2.55;;;1.10;;
41946;SDS011;27638;42.184;24.848;2023-03-12T08:58:54;4.30;;;1.30;;
41946;SDS011;27638;42.184;24.848;2023-03-12T09:01:20;1.30;;;1.17;;
41946;SDS011;27638;42.184;24.848;2023-03-12T09:03:45;3.05;;;1.20;;
41946;SDS011;27638;42.184;24.848;2023-03-12T09:06:13;4.03;;;1.33;;
41946;SDS011;27638;42.184;24.848;2023-03-12T09:08:41;2.88;;;1.58;;
41946;SDS011;27638;42.184;24.848;2023-03-12T09:11:07;2.70;;;1.30;;
41946;SDS011;27638;42.184;24.848;2023-03-12T09:13:34;3.83;;;1.50;;
41946;SDS011;27638;42.184;24.848;2023-03-12T09:16:00;2.55;;;1.40;;
41946;SDS011;27638;42.184;24.848;2023-03-12T09:18:27;3.55;;;1.75;;
41946;SDS011;27638;42.184;24.848;2023-03-12T09:20:54;2.47;;;1.40;;
41946;SDS011;27638;42.184;24.848;2023-03-12T09:23:19;1.60;;;1.38;;
41946;SDS011;27638;42.184;24.848;2023-03-12T09:25:45;1.13;;;1.02;;
41946;SDS011;27638;42.184;24.848;2023-03-12T09:28:11;2.92;;;1.55;;
41946;SDS011;27638;42.184;24.848;2023-03-12T09:30:37;1.65;;;1.20;;
41946;SDS011;27638;42.184;24.848;2023-03-12T09:33:03;2.30;;;1.33;;
41946;SDS011;27638;42.184;24.848;2023-03-12T09:35:29;1.88;;;1.30;;
41946;SDS011;27638;42.184;24.848;2023-03-12T09:37:55;2.50;;;1.30;;
41946;SDS011;27638;42.184;24.848;2023-03-12T09:40:22;1.67;;;1.23;;
41946;SDS011;27638;42.184;24.848;2023-03-12T09:45:23;2.58;;;1.70;;
41946;SDS011;27638;42.184;24.848;2023-03-12T09:52:54;1.77;;;1.60;;
41946;SDS011;27638;42.184;24.848;2023-03-12T09:55:23;1.90;;;1.80;;
41946;SDS011;27638;42.184;24.848;2023-03-12T09:57:50;1.55;;;1.38;;
41946;SDS011;27638;42.184;24.848;2023-03-12T10:00:20;4.72;;;1.58;;
41946;SDS011;27638;42.184;24.848;2023-03-12T10:06:10;3.30;;;1.50;;
41946;SDS011;27638;42.184;24.848;2023-03-12T10:17:14;5.68;;;3.17;;
41946;SDS011;27638;42.184;24.848;2023-03-12T10:22:52;3.15;;;2.85;;
41946;SDS011;27638;42.184;24.848;2023-03-12T10:28:14;3.15;;;2.85;;
41946;SDS011;27638;42.184;24.848;2023-03-12T10:30:44;2.28;;;1.48;;
41946;SDS011;27638;42.184;24.848;2023-03-12T10:33:15;3.05;;;2.70;;
41946;SDS011;27638;42.184;24.848;2023-03-12T10:35:43;3.50;;;2.83;;
41946;SDS011;27638;42.184;24.848;2023-03-12T10:38:30;3.58;;;2.60;;
41946;SDS011;27638;42.184;24.848;2023-03-12T10:40:54;3.65;;;2.25;;
41946;SDS011;27638;42.184;24.848;2023-03-12T10:43:20;1.42;;;1.33;;
41946;SDS011;27638;42.184;24.848;2023-03-12T10:54:42;2.45;;;1.85;;
41946;SDS011;27638;42.184;24.848;2023-03-12T10:57:09;4.82;;;1.67;;
41946;SDS011;27638;42.184;24.848;2023-03-12T10:59:39;3.08;;;1.70;;
41946;SDS011;27638;42.184;24.848;2023-03-12T11:02:32;1.70;;;1.48;;
41946;SDS011;27638;42.184;24.848;2023-03-12T11:05:19;2.20;;;1.63;;
41946;SDS011;27638;42.184;24.848;2023-03-12T11:07:47;1.20;;;1.10;;
41946;SDS011;27638;42.184;24.848;2023-03-12T11:10:14;1.52;;;1.30;;
41946;SDS011;27638;42.184;24.848;2023-03-12T11:12:49;1.95;;;1.20;;
41946;SDS011;27638;42.184;24.848;2023-03-12T11:15:18;2.17;;;1.27;;
41946;SDS011;27638;42.184;24.848;2023-03-12T11:17:45;1.73;;;1.25;;
41946;SDS011;27638;42.184;24.848;2023-03-12T11:22:45;4.75;;;2.75;;
41946;SDS011;27638;42.184;24.848;2023-03-12T11:25:19;7.22;;;2.38;;
41946;SDS011;27638;42.184;24.848;2023-03-12T11:27:50;1.70;;;1.20;;
41946;SDS011;27638;42.184;24.848;2023-03-12T11:33:04;1.30;;;1.20;;
41946;SDS011;27638;42.184;24.848;2023-03-12T11:38:18;2.25;;;1.80;;
41946;SDS011;27638;42.184;24.848;2023-03-12T11:40:57;3.72;;;1.30;;
41946;SDS011;27638;42.184;24.848;2023-03-12T11:43:59;2.15;;;1.95;;
41946;SDS011;27638;42.184;24.848;2023-03-12T11:53:00;1.60;;;1.23;;
41946;SDS011;27638;42.184;24.848;2023-03-12T11:55:51;2.92;;;1.35;;
41946;SDS011;27638;42.184;24.848;2023-03-12T12:01:48;5.20;;;2.10;;
41946;SDS011;27638;42.184;24.848;2023-03-12T12:12:55;0.70;;;0.70;;
41946;SDS011;27638;42.184;24.848;2023-03-12T12:15:38;2.90;;;1.50;;
41946;SDS011;27638;42.184;24.848;2023-03-12T12:26:09;1.73;;;1.00;;
41946;SDS011;27638;42.184;24.848;2023-03-12T12:36:31;2.47;;;1.75;;
41946;SDS011;27638;42.184;24.848;2023-03-12T12:39:09;1.58;;;1.23;;
41946;SDS011;27638;42.184;24.848;2023-03-12T12:41:54;2.53;;;1.17;;
41946;SDS011;27638;42.184;24.848;2023-03-12T12:44:24;1.65;;;1.20;;
41946;SDS011;27638;42.184;24.848;2023-03-12T12:46:59;1.48;;;1.20;;
41946;SDS011;27638;42.184;24.848;2023-03-12T12:52:10;1.40;;;1.30;;
41946;SDS011;27638;42.184;24.848;2023-03-12T12:57:44;1.33;;;0.93;;
41946;SDS011;27638;42.184;24.848;2023-03-12T13:00:22;2.15;;;0.93;;
41946;SDS011;27638;42.184;24.848;2023-03-12T13:03:28;3.35;;;1.90;;
41946;SDS011;27638;42.184;24.848;2023-03-12T13:13:43;1.17;;;1.00;;
41946;SDS011;27638;42.184;24.848;2023-03-12T13:19:01;2.13;;;1.20;;
41946;SDS011;27638;42.184;24.848;2023-03-12T13:21:54;2.05;;;1.48;;
41946;SDS011;27638;42.184;24.848;2023-03-12T13:27:24;4.45;;;1.88;;
41946;SDS011;27638;42.184;24.848;2023-03-12T13:29:54;1.13;;;0.70;;
41946;SDS011;27638;42.184;24.848;2023-03-12T13:34:58;6.75;;;2.28;;
41946;SDS011;27638;42.184;24.848;2023-03-12T13:48:28;1.30;;;0.90;;
41946;SDS011;27638;42.184;24.848;2023-03-12T13:50:56;2.72;;;1.30;;
41946;SDS011;27638;42.184;24.848;2023-03-12T13:53:23;1.00;;;1.00;;
41946;SDS011;27638;42.184;24.848;2023-03-12T13:56:10;1.58;;;0.82;;
41946;SDS011;27638;42.184;24.848;2023-03-12T14:01:14;1.15;;;1.05;;
41946;SDS011;27638;42.184;24.848;2023-03-12T14:03:51;1.45;;;1.00;;
41946;SDS011;27638;42.184;24.848;2023-03-12T14:06:23;1.42;;;1.00;;
41946;SDS011;27638;42.184;24.848;2023-03-12T14:15:06;1.25;;;0.95;;
41946;SDS011;27638;42.184;24.848;2023-03-12T14:17:41;2.08;;;1.35;;
41946;SDS011;27638;42.184;24.848;2023-03-12T14:20:13;1.20;;;1.00;;
41946;SDS011;27638;42.184;24.848;2023-03-12T14:22:43;1.70;;;1.30;;
41946;SDS011;27638;42.184;24.848;2023-03-12T14:25:24;2.60;;;1.30;;
41946;SDS011;27638;42.184;24.848;2023-03-12T14:27:56;1.95;;;0.90;;
41946;SDS011;27638;42.184;24.848;2023-03-12T14:33:34;2.42;;;1.08;;
41946;SDS011;27638;42.184;24.848;2023-03-12T14:36:13;1.70;;;1.33;;
41946;SDS011;27638;42.184;24.848;2023-03-12T14:38:43;2.95;;;1.50;;
41946;SDS011;27638;42.184;24.848;2023-03-12T14:43:37;1.27;;;1.13;;
41946;SDS011;27638;42.184;24.848;2023-03-12T14:46:12;3.97;;;1.95;;
41946;SDS011;27638;42.184;24.848;2023-03-12T14:48:52;1.15;;;0.80;;
41946;SDS011;27638;42.184;24.848;2023-03-12T14:51:23;0.93;;;0.80;;
41946;SDS011;27638;42.184;24.848;2023-03-12T14:53:54;1.30;;;0.90;;
41946;SDS011;27638;42.184;24.848;2023-03-12T14:56:21;1.05;;;0.98;;
41946;SDS011;27638;42.184;24.848;2023-03-12T14:58:57;0.70;;;0.70;;
41946;SDS011;27638;42.184;24.848;2023-03-12T15:01:29;4.28;;;0.90;;
41946;SDS011;27638;42.184;24.848;2023-03-12T15:03:59;5.72;;;1.50;;
41946;SDS011;27638;42.184;24.848;2023-03-12T15:06:34;1.58;;;0.90;;
41946;SDS011;27638;42.184;24.848;2023-03-12T15:09:04;1.92;;;0.90;;
41946;SDS011;27638;42.184;24.848;2023-03-12T15:11:34;2.00;;;1.15;;
41946;SDS011;27638;42.184;24.848;2023-03-12T15:14:06;1.00;;;1.00;;
41946;SDS011;27638;42.184;24.848;2023-03-12T15:16:38;1.10;;;0.80;;
41946;SDS011;27638;42.184;24.848;2023-03-12T15:19:04;1.27;;;1.00;;
41946;SDS011;27638;42.184;24.848;2023-03-12T15:21:31;1.00;;;0.70;;
41946;SDS011;27638;42.184;24.848;2023-03-12T15:23:58;1.23;;;0.98;;
41946;SDS011;27638;42.184;24.848;2023-03-12T15:31:23;3.80;;;1.73;;
41946;SDS011;27638;42.184;24.848;2023-03-12T15:33:59;4.05;;;2.72;;
41946;SDS011;27638;42.184;24.848;2023-03-12T15:36:26;2.38;;;1.58;;
41946;SDS011;27638;42.184;24.848;2023-03-12T15:39:00;4.43;;;1.88;;
41946;SDS011;27638;42.184;24.848;2023-03-12T15:41:39;3.88;;;1.80;;
41946;SDS011;27638;42.184;24.848;2023-03-12T15:46:53;1.55;;;1.27;;
41946;SDS011;27638;42.184;24.848;2023-03-12T15:49:27;2.92;;;1.55;;
41946;SDS011;27638;42.184;24.848;2023-03-12T15:51:59;3.35;;;2.67;;
41946;SDS011;27638;42.184;24.848;2023-03-12T15:57:50;8.85;;;5.72;;
41946;SDS011;27638;42.184;24.848;2023-03-12T16:00:24;9.35;;;4.18;;
41946;SDS011;27638;42.184;24.848;2023-03-12T16:02:56;8.38;;;4.43;;
41946;SDS011;27638;42.184;24.848;2023-03-12T16:05:33;7.25;;;3.95;;
41946;SDS011;27638;42.184;24.848;2023-03-12T16:08:24;6.70;;;3.10;;
41946;SDS011;27638;42.184;24.848;2023-03-12T16:10:53;6.78;;;3.72;;
41946;SDS011;27638;42.184;24.848;2023-03-12T16:13:20;10.02;;;5.32;;
41946;SDS011;27638;42.184;24.848;2023-03-12T16:15:51;11.13;;;6.65;;
41946;SDS011;27638;42.184;24.848;2023-03-12T16:18:18;16.40;;;9.07;;
41946;SDS011;27638;42.184;24.848;2023-03-12T16:20:45;11.73;;;6.30;;
41946;SDS011;27638;42.184;24.848;2023-03-12T16:23:11;11.73;;;6.15;;
41946;SDS011;27638;42.184;24.848;2023-03-12T16:25:37;11.77;;;7.57;;
41946;SDS011;27638;42.184;24.848;2023-03-12T16:28:05;2.00;;;1.70;;
41946;SDS011;27638;42.184;24.848;2023-03-12T16:30:32;5.25;;;2.00;;
41946;SDS011;27638;42.184;24.848;2023-03-12T16:33:01;5.55;;;3.53;;
41946;SDS011;27638;42.184;24.848;2023-03-12T16:35:28;8.65;;;3.92;;
41946;SDS011;27638;42.184;24.848;2023-03-12T16:37:59;9.85;;;4.55;;
41946;SDS011;27638;42.184;24.848;2023-03-12T16:40:26;7.88;;;5.30;;
41946;SDS011;27638;42.184;24.848;2023-03-12T16:42:54;7.80;;;4.45;;
41946;SDS011;27638;42.184;24.848;2023-03-12T16:45:20;9.88;;;5.68;;
41946;SDS011;27638;42.184;24.848;2023-03-12T16:47:47;13.38;;;7.20;;
41946;SDS011;27638;42.184;24.848;2023-03-12T16:50:18;6.75;;;3.97;;
41946;SDS011;27638;42.184;24.848;2023-03-12T16:52:46;10.40;;;6.38;;
41946;SDS011;27638;42.184;24.848;2023-03-12T16:55:14;7.50;;;5.07;;
41946;SDS011;27638;42.184;24.848;2023-03-12T16:57:41;13.48;;;7.53;;
41946;SDS011;27638;42.184;24.848;2023-03-12T17:00:12;11.82;;;6.95;;
41946;SDS011;27638;42.184;24.848;2023-03-12T17:02:42;17.88;;;9.68;;
41946;SDS011;27638;42.184;24.848;2023-03-12T17:05:08;15.00;;;9.32;;
41946;SDS011;27638;42.184;24.848;2023-03-12T17:07:33;11.27;;;6.53;;